Shipshewana, IN

7:42 AM EDT on August 30, 2014 (GMT -0400)
Goshen Municipal | Change Station
CLOSE
Current Station
Airport
Location: Goshen,
Elevation: 827 ft
Nearby Weather Stations

Elev 827 ft 41.53 °N, 85.79 °W | Updated 49 minutes ago

Overcast
Overcast
73 °F
Feels Like 73 °F
N
9
Wind Variable Wind from South

Today
High -- | Low -- °F
--% Chance of Precip.
Yesterday
High -- | Low -- °F
Precip. -- in
7:06 AM 8:18 PM
Waxing Crescent, 21% visible
Pressure 29.91 in
Visibility 10.0 miles
Clouds Few 5000 ft
Mostly Cloudy 7000 ft
Overcast 8500 ft
Dew Point 67 °F
Humidity 81%
Rainfall 0.00 in
Snow Depth Not available.
UV 0 out of 12
Pollen 8.20 out of 12
Air Quality Not available.
Flu Activity Not available.
METAR KGSH 301053Z AUTO 18008KT 10SM FEW050 BKN070 OVC085 23/19 A2993 RMK AO2 LTG DSNT NE RAB20E41 SLP129 P0000 T02280194

More Conditions Fewer Conditions

Pressure 29.91 in
Visibility 10.0 miles
Clouds Few 5000 ft
Mostly Cloudy 7000 ft
Overcast 8500 ft
Dew Point 67 °F
Humidity 81%
Rainfall 0.00 in
Snow Depth Not available.
UV 0 out of 12
Pollen 8.20 out of 12
Air Quality Not available.
Flu Activity Not available.
METAR KGSH 301053Z AUTO 18008KT 10SM FEW050 BKN070 OVC085 23/19 A2993 RMK AO2 LTG DSNT NE RAB20E41 SLP129 P0000 T02280194

More Conditions Fewer Conditions

10-Day Weather Forecast

Almanac

Astronomy

Aug. 30, 2014 Rise Set
Actual Time 7:06 AM EDT 8:18 PM EDT
Civil Twilight 6:37 AM EDT 8:47 PM EDT
Nautical Twilight 6:03 AM EDT 9:21 PM EDT
Astronomical Twilight 5:26 AM EDT 9:57 PM EDT
Moon 11:57 AM EDT 10:48 PM EDT
Length of Visible Light 14h 09m
Length of Day
13h 12m
Tomorrow will be 2m 41s shorter.
Waxing Crescent, 21% of the Moon is Illuminated
Today
Waxing Crescent
Sep 2
First Quarter
Sep 8
Full
Sep 15
Last Quarter
Sep 24
New

Today's Extremes

State Highs State Lows

Community

WunderPhotos

Upload Photos

1,748,492 photos uploaded!

WunderBlogs® & News

By Dr. Jeff Masters
Director of Meteorology, Weather Underground
By Kari Strenfel
Meteorologist, Weather Underground
By Christopher C. Burt
Weather Historian, Weather Underground
August 30, 2014
August 30, 2014
August 30, 2014

Nearby

Snow Depth

Station Depth Elevation
No new snow has been reported.

Earthquake Activity

City Distance Mag. Time & Date
No recent earthquake activity has been reported nearby.
Minimum magnitude displayed is 2.5.

Coastal Water Temperatures

Place Temperature
No Stations Reporting

Nearby Weather Stations